createdAt,value
2018-06-17T00:00:51.343Z,0.00
2018-06-17T00:01:51.460Z,0.00
2018-06-17T00:02:51.299Z,0.00
2018-06-17T00:03:51.475Z,0.00
2018-06-17T00:04:51.254Z,0.00
2018-06-17T00:05:51.388Z,0.00
2018-06-17T00:06:51.213Z,0.00
2018-06-17T00:07:51.399Z,0.00
2018-06-17T00:08:51.168Z,0.00
2018-06-17T00:09:51.312Z,0.00
2018-06-17T00:10:51.126Z,0.00
2018-06-17T00:11:51.326Z,0.00
2018-06-17T00:12:51.082Z,0.00
2018-06-17T00:13:51.135Z,0.00
2018-06-17T00:14:51.039Z,0.00
2018-06-17T00:15:51.049Z,0.00
2018-06-17T00:16:50.995Z,0.00
2018-06-17T00:17:51.062Z,0.00
2018-06-17T00:18:50.951Z,0.00
2018-06-17T00:19:50.971Z,0.00
2018-06-17T00:20:50.908Z,0.00
2018-06-17T00:21:50.988Z,0.00
2018-06-17T00:22:50.864Z,0.00
2018-06-17T00:23:50.899Z,0.00
2018-06-17T00:24:50.818Z,0.00
2018-06-17T00:25:50.910Z,0.00
2018-06-17T00:26:50.777Z,0.00
2018-06-17T00:27:50.822Z,0.00
2018-06-17T00:28:50.734Z,0.00
2018-06-17T00:29:50.837Z,0.00
2018-06-17T00:30:50.690Z,0.00
2018-06-17T00:31:50.750Z,0.00
2018-06-17T00:32:50.648Z,0.00
2018-06-17T00:33:50.660Z,0.00
2018-06-17T00:34:50.606Z,0.00
2018-06-17T00:35:50.675Z,0.00
2018-06-17T00:36:50.556Z,0.00
2018-06-17T00:37:50.586Z,0.00
2018-06-17T00:38:50.513Z,0.00
2018-06-17T00:39:50.602Z,0.00
2018-06-17T00:40:50.470Z,0.00
2018-06-17T00:41:50.512Z,0.00
2018-06-17T00:42:50.428Z,0.00
2018-06-17T00:43:50.530Z,0.00
2018-06-17T00:44:50.381Z,0.00
2018-06-17T00:45:50.437Z,0.00
2018-06-17T00:46:50.338Z,0.00
2018-06-17T00:47:50.454Z,0.00
2018-06-17T00:48:50.295Z,0.00
2018-06-17T00:49:50.365Z,0.00
2018-06-17T00:50:50.252Z,0.00
2018-06-17T00:51:50.379Z,0.00
2018-06-17T00:52:50.211Z,0.00
2018-06-17T00:53:50.292Z,0.00
2018-06-17T00:54:50.165Z,0.00
2018-06-17T00:55:50.201Z,0.00
2018-06-17T00:56:50.116Z,0.00
2018-06-17T00:57:50.220Z,0.00
2018-06-17T00:58:50.085Z,0.00
2018-06-17T00:59:50.128Z,0.00
2018-06-17T01:00:50.028Z,0.00
2018-06-17T01:01:50.142Z,0.00
2018-06-17T01:02:49.985Z,0.00
2018-06-17T01:03:50.054Z,0.00
2018-06-17T01:04:49.942Z,0.00
2018-06-17T01:05:50.069Z,0.00
2018-06-17T01:06:49.898Z,0.00
2018-06-17T01:07:49.981Z,0.00
2018-06-17T01:08:49.854Z,0.00
2018-06-17T01:09:49.994Z,0.00
2018-06-17T01:10:49.809Z,0.00
2018-06-17T01:11:49.907Z,0.00
2018-06-17T01:12:49.764Z,0.00
2018-06-17T01:13:49.818Z,0.00
2018-06-17T01:14:49.725Z,0.00
2018-06-17T01:15:49.834Z,0.00
2018-06-17T01:16:49.675Z,0.00
2018-06-17T01:17:49.749Z,0.00
2018-06-17T01:18:49.638Z,0.00
2018-06-17T01:19:49.758Z,0.00
2018-06-17T01:20:49.587Z,0.00
2018-06-17T01:21:49.670Z,0.00
2018-06-17T01:22:49.543Z,0.00
2018-06-17T01:23:49.683Z,0.00
2018-06-17T01:24:49.497Z,0.00
2018-06-17T01:25:49.598Z,0.00
2018-06-17T01:26:49.453Z,0.00
2018-06-17T01:27:49.610Z,0.00
2018-06-17T01:28:49.410Z,0.00
2018-06-17T01:29:49.522Z,0.00
2018-06-17T01:30:49.363Z,0.00
2018-06-17T01:31:49.431Z,0.00
2018-06-17T01:32:49.322Z,0.00
2018-06-17T01:33:49.451Z,0.00
2018-06-17T01:34:49.278Z,0.00
2018-06-17T01:35:49.360Z,0.00
2018-06-17T01:36:49.230Z,0.00
2018-06-17T01:37:49.373Z,0.00
2018-06-17T01:38:49.196Z,0.00
2018-06-17T01:39:49.285Z,0.00
2018-06-17T01:40:49.143Z,0.00
2018-06-17T01:41:49.301Z,0.00
2018-06-17T01:42:49.099Z,0.00
2018-06-17T01:43:49.216Z,0.00
2018-06-17T01:44:49.051Z,0.00
2018-06-17T01:45:49.226Z,0.00
2018-06-17T01:46:49.008Z,0.00
2018-06-17T01:47:49.139Z,0.00
2018-06-17T01:48:48.964Z,0.00
2018-06-17T01:49:49.049Z,0.00
2018-06-17T01:50:48.918Z,0.00
2018-06-17T01:51:49.120Z,0.00
2018-06-17T01:52:48.895Z,0.00
2018-06-17T01:53:48.976Z,0.00
2018-06-17T01:54:48.829Z,0.00
2018-06-17T01:55:49.914Z,0.00
2018-06-17T01:56:48.786Z,0.00
2018-06-17T01:57:49.927Z,0.00
2018-06-17T01:58:48.740Z,0.00
2018-06-17T01:59:48.918Z,0.00
2018-06-17T02:00:48.696Z,0.00
2018-06-17T02:01:48.827Z,0.00
2018-06-17T02:02:48.652Z,0.00
2018-06-17T02:03:48.842Z,0.00
2018-06-17T02:04:48.608Z,0.00
2018-06-17T02:05:48.753Z,0.00
2018-06-17T02:06:48.562Z,0.00
2018-06-17T02:07:48.663Z,0.00
2018-06-17T02:08:48.517Z,0.00
2018-06-17T02:09:48.678Z,0.00
2018-06-17T02:10:48.472Z,0.00
2018-06-17T02:11:48.589Z,0.00
2018-06-17T02:12:48.428Z,0.00
2018-06-17T02:13:48.604Z,0.00
2018-06-17T02:14:48.383Z,0.00
2018-06-17T02:15:48.414Z,0.00
2018-06-17T02:16:48.338Z,0.00
2018-06-17T02:17:48.437Z,0.00
2018-06-17T02:18:48.298Z,0.00
2018-06-17T02:19:48.340Z,0.00
2018-06-17T02:20:48.250Z,0.00
2018-06-17T02:21:48.357Z,0.00
2018-06-17T02:22:48.207Z,0.00
2018-06-17T02:23:48.267Z,0.00
2018-06-17T02:24:48.160Z,0.00
2018-06-17T02:25:48.176Z,0.00
2018-06-17T02:26:48.120Z,0.00
2018-06-17T02:27:48.191Z,0.00
2018-06-17T02:28:48.074Z,0.00
2018-06-17T02:29:48.102Z,0.00
2018-06-17T02:30:48.027Z,0.00
2018-06-17T02:31:48.117Z,0.00
2018-06-17T02:32:47.982Z,0.00
2018-06-17T02:33:48.030Z,0.00
2018-06-17T02:34:47.938Z,0.00
2018-06-17T02:35:48.042Z,0.00
2018-06-17T02:36:47.894Z,0.00
2018-06-17T02:37:47.958Z,0.00
2018-06-17T02:38:47.850Z,0.00
2018-06-17T02:39:47.867Z,0.00
2018-06-17T02:40:47.803Z,0.00
2018-06-17T02:41:47.882Z,0.00
2018-06-17T02:42:47.758Z,0.00
2018-06-17T02:43:47.796Z,0.00
2018-06-17T02:44:47.714Z,0.00
2018-06-17T02:45:47.808Z,0.00
2018-06-17T02:46:47.670Z,0.00
2018-06-17T02:47:47.722Z,0.00
2018-06-17T02:48:47.628Z,0.00
2018-06-17T02:49:47.736Z,0.00
2018-06-17T02:50:47.586Z,4.00
2018-06-17T02:51:47.647Z,4.00
2018-06-17T02:52:47.535Z,0.00
2018-06-17T02:53:47.663Z,0.00
2018-06-17T02:54:47.492Z,4.00
2018-06-17T02:55:47.572Z,4.00
2018-06-17T02:56:47.446Z,0.00
2018-06-17T02:57:47.483Z,4.00
2018-06-17T02:58:47.399Z,4.00
2018-06-17T02:59:47.497Z,4.00
2018-06-17T03:00:47.355Z,4.00
2018-06-17T03:01:47.411Z,4.00
2018-06-17T03:02:47.318Z,4.00
2018-06-17T03:03:47.515Z,4.00
2018-06-17T03:04:47.265Z,4.00
2018-06-17T03:05:47.342Z,8.00
2018-06-17T03:06:47.220Z,4.00
2018-06-17T03:07:47.348Z,8.00
2018-06-17T03:08:47.175Z,8.00
2018-06-17T03:09:47.260Z,4.00
2018-06-17T03:10:47.129Z,8.00
2018-06-17T03:11:47.275Z,8.00
2018-06-17T03:12:47.084Z,8.00
2018-06-17T03:13:47.187Z,12.00
2018-06-17T03:14:47.041Z,12.00
2018-06-17T03:15:48.122Z,12.00
2018-06-17T03:16:46.995Z,12.00
2018-06-17T03:17:47.113Z,16.00
2018-06-17T03:18:46.948Z,16.00
2018-06-17T03:19:47.026Z,16.00
2018-06-17T03:20:46.906Z,20.00
2018-06-17T03:21:47.041Z,20.00
2018-06-17T03:22:46.859Z,24.00
2018-06-17T03:23:46.951Z,20.00
2018-06-17T03:24:46.837Z,24.00
2018-06-17T03:25:46.966Z,24.00
2018-06-17T03:26:46.768Z,28.00
2018-06-17T03:27:46.878Z,32.00
2018-06-17T03:28:46.721Z,32.00
2018-06-17T03:29:46.792Z,36.00
2018-06-17T03:30:46.680Z,36.00
2018-06-17T03:31:46.805Z,44.00
2018-06-17T03:32:46.635Z,44.00
2018-06-17T03:33:46.713Z,48.00
2018-06-17T03:34:46.587Z,48.00
2018-06-17T03:35:46.731Z,48.00
2018-06-17T03:36:46.540Z,52.00
2018-06-17T03:37:46.643Z,52.00
2018-06-17T03:38:46.496Z,56.00
2018-06-17T03:39:46.655Z,60.00
2018-06-17T03:40:46.451Z,64.00
2018-06-17T03:41:46.568Z,68.00
2018-06-17T03:42:46.410Z,72.00
2018-06-17T03:43:46.480Z,76.00
2018-06-17T03:44:46.359Z,84.00
2018-06-17T03:45:46.492Z,88.00
2018-06-17T03:46:46.319Z,96.00
2018-06-17T03:47:46.404Z,100.00
2018-06-17T03:48:46.273Z,104.00
2018-06-17T03:49:46.420Z,112.00
2018-06-17T03:50:46.234Z,116.00
2018-06-17T03:51:46.334Z,120.00
2018-06-17T03:52:46.179Z,128.00
2018-06-17T03:53:46.346Z,140.00
2018-06-17T03:54:46.136Z,144.00
2018-06-17T03:55:46.258Z,148.00
2018-06-17T03:56:46.091Z,156.00
2018-06-17T03:57:46.271Z,156.00
2018-06-17T03:58:46.045Z,164.00
2018-06-17T03:59:46.183Z,172.00
2018-06-17T04:00:45.998Z,180.00
2018-06-17T04:01:46.096Z,184.00
2018-06-17T04:02:45.971Z,192.00
2018-06-17T04:03:46.115Z,204.00
2018-06-17T04:04:45.910Z,212.00
2018-06-17T04:05:46.022Z,220.00
2018-06-17T04:06:45.864Z,232.00
2018-06-17T04:07:46.039Z,244.00
2018-06-17T04:08:45.822Z,256.00
2018-06-17T04:09:45.956Z,264.00
2018-06-17T04:10:45.776Z,280.00
2018-06-17T04:11:45.964Z,288.00
2018-06-17T04:12:45.730Z,304.00
2018-06-17T04:13:45.873Z,312.00
2018-06-17T04:14:45.687Z,324.00
2018-06-17T04:15:45.887Z,344.00
2018-06-17T04:16:45.640Z,360.00
2018-06-17T04:17:45.694Z,380.00
2018-06-17T04:18:45.597Z,396.00
2018-06-17T04:19:45.609Z,420.00
2018-06-17T04:20:45.552Z,448.00
2018-06-17T04:21:45.621Z,468.00
2018-06-17T04:22:45.507Z,492.00
2018-06-17T04:23:45.537Z,512.00
2018-06-17T04:24:45.458Z,524.00
2018-06-17T04:25:45.547Z,540.00
2018-06-17T04:26:45.416Z,552.00
2018-06-17T04:27:45.459Z,560.00
2018-06-17T04:28:45.370Z,560.00
2018-06-17T04:29:45.472Z,552.00
2018-06-17T04:30:45.327Z,548.00
2018-06-17T04:31:45.383Z,528.00
2018-06-17T04:32:45.283Z,508.00
2018-06-17T04:33:45.295Z,476.00
2018-06-17T04:34:45.235Z,452.00
2018-06-17T04:35:45.310Z,420.00
2018-06-17T04:36:45.190Z,428.00
2018-06-17T04:37:45.223Z,432.00
2018-06-17T04:38:45.145Z,440.00
2018-06-17T04:39:45.235Z,420.00
2018-06-17T04:40:45.104Z,420.00
2018-06-17T04:41:45.146Z,460.00
2018-06-17T04:42:45.058Z,500.00
2018-06-17T04:43:45.060Z,576.00
2018-06-17T04:44:45.010Z,652.00
2018-06-17T04:45:45.074Z,716.00
2018-06-17T04:46:44.968Z,736.00
2018-06-17T04:47:45.093Z,748.00
2018-06-17T04:48:44.926Z,768.00
2018-06-17T04:49:45.001Z,796.00
2018-06-17T04:50:44.877Z,812.00
2018-06-17T04:51:44.912Z,820.00
2018-06-17T04:52:44.831Z,820.00
2018-06-17T04:53:44.927Z,844.00
2018-06-17T04:54:44.789Z,860.00
2018-06-17T04:55:44.856Z,864.00
2018-06-17T04:56:44.746Z,864.00
2018-06-17T04:57:44.865Z,864.00
2018-06-17T04:58:44.699Z,856.00
2018-06-17T04:59:44.764Z,844.00
2018-06-17T05:00:44.657Z,840.00
2018-06-17T05:01:44.778Z,840.00
2018-06-17T05:02:44.613Z,856.00
2018-06-17T05:03:44.691Z,884.00
2018-06-17T05:04:44.566Z,880.00
2018-06-17T05:05:44.705Z,896.00
2018-06-17T05:06:44.519Z,896.00
2018-06-17T05:07:46.344Z,912.00
2018-06-17T05:08:44.474Z,912.00
2018-06-17T05:09:44.484Z,924.00
2018-06-17T05:10:44.430Z,936.00
2018-06-17T05:11:44.495Z,952.00
2018-06-17T05:12:44.387Z,960.00
2018-06-17T05:13:44.400Z,968.00
2018-06-17T05:14:44.345Z,976.00
2018-06-17T05:15:44.416Z,980.00
2018-06-17T05:16:44.295Z,1000.00
2018-06-17T05:17:44.275Z,1020.00
2018-06-17T05:18:44.253Z,1028.00
2018-06-17T05:19:44.331Z,1044.00
2018-06-17T05:20:44.209Z,1048.00
2018-06-17T05:21:44.244Z,1052.00
2018-06-17T05:22:44.164Z,1068.00
2018-06-17T05:23:44.319Z,1080.00
2018-06-17T05:24:44.121Z,1092.00
2018-06-17T05:25:44.255Z,1108.00
2018-06-17T05:26:44.076Z,1132.00
2018-06-17T05:27:44.136Z,1140.00
2018-06-17T05:28:44.035Z,1144.00
2018-06-17T05:29:44.155Z,1148.00
2018-06-17T05:30:43.991Z,1168.00
2018-06-17T05:31:44.068Z,1184.00
2018-06-17T05:32:43.941Z,1180.00
2018-06-17T05:33:44.085Z,1192.00
2018-06-17T05:34:43.898Z,1172.00
2018-06-17T05:35:43.996Z,1140.00
2018-06-17T05:36:43.853Z,1136.00
2018-06-17T05:37:43.907Z,1128.00
2018-06-17T05:38:43.809Z,1092.00
2018-06-17T05:39:43.820Z,1036.00
2018-06-17T05:40:43.770Z,988.00
2018-06-17T05:41:43.831Z,924.00
2018-06-17T05:42:43.766Z,908.00
2018-06-17T05:43:43.744Z,916.00
2018-06-17T05:44:43.678Z,936.00
2018-06-17T05:45:43.759Z,960.00
2018-06-17T05:46:43.633Z,924.00
2018-06-17T05:47:43.671Z,868.00
2018-06-17T05:48:43.590Z,792.00
2018-06-17T05:49:43.582Z,772.00
2018-06-17T05:50:43.549Z,816.00
2018-06-17T05:51:43.596Z,868.00
2018-06-17T05:52:43.507Z,916.00
2018-06-17T05:53:43.507Z,948.00
2018-06-17T05:54:43.461Z,924.00
2018-06-17T05:55:43.557Z,888.00
2018-06-17T05:56:43.416Z,840.00
2018-06-17T05:57:43.427Z,836.00
2018-06-17T05:58:43.373Z,884.00
2018-06-17T05:59:43.453Z,948.00
2018-06-17T06:00:43.338Z,1012.00
2018-06-17T06:01:43.365Z,1056.00
2018-06-17T06:02:43.284Z,1128.00
2018-06-17T06:03:43.376Z,1240.00
2018-06-17T06:04:43.241Z,1300.00
2018-06-17T06:05:43.287Z,1372.00
2018-06-17T06:06:43.197Z,1452.00
2018-06-17T06:07:43.198Z,1496.00
2018-06-17T06:08:43.158Z,1516.00
2018-06-17T06:09:43.211Z,1560.00
2018-06-17T06:10:43.109Z,1600.00
2018-06-17T06:11:43.125Z,1628.00
2018-06-17T06:12:43.068Z,1664.00
2018-06-17T06:13:43.136Z,1588.00
2018-06-17T06:14:43.033Z,1508.00
2018-06-17T06:15:43.047Z,1436.00
2018-06-17T06:16:42.978Z,1340.00
2018-06-17T06:17:43.062Z,1336.00
2018-06-17T06:18:42.936Z,1384.00
2018-06-17T06:19:42.974Z,1404.00
2018-06-17T06:20:42.893Z,1392.00
2018-06-17T06:21:42.896Z,1364.00
2018-06-17T06:22:42.851Z,1344.00
2018-06-17T06:23:42.899Z,1304.00
2018-06-17T06:24:42.817Z,1316.00
2018-06-17T06:25:42.812Z,1376.00
2018-06-17T06:26:42.764Z,1440.00
2018-06-17T06:27:42.826Z,1508.00
2018-06-17T06:28:42.720Z,1588.00
2018-06-17T06:29:42.739Z,1644.00
2018-06-17T06:30:42.678Z,1644.00
2018-06-17T06:31:42.756Z,1652.00
2018-06-17T06:32:42.634Z,1624.00
2018-06-17T06:33:42.655Z,1584.00
2018-06-17T06:34:42.594Z,1568.00
2018-06-17T06:35:42.677Z,1548.00
2018-06-17T06:36:42.547Z,1512.00
2018-06-17T06:37:42.598Z,1428.00
2018-06-17T06:38:42.505Z,1340.00
2018-06-17T06:39:42.504Z,1244.00
2018-06-17T06:40:42.475Z,1232.00
2018-06-17T06:41:42.516Z,1280.00
2018-06-17T06:42:42.430Z,1312.00
2018-06-17T06:43:42.428Z,1356.00
2018-06-17T06:44:42.380Z,1364.00
2018-06-17T06:45:42.843Z,1360.00
2018-06-17T06:46:42.449Z,1404.00
2018-06-17T06:47:42.315Z,1456.00
2018-06-17T06:48:42.360Z,1472.00
2018-06-17T06:49:42.271Z,1508.00
2018-06-17T06:50:42.375Z,1548.00
2018-06-17T06:51:42.278Z,1540.00
2018-06-17T06:52:42.206Z,1524.00
2018-06-17T06:53:42.301Z,1480.00
2018-06-17T06:54:42.163Z,1428.00
2018-06-17T06:55:42.237Z,1404.00
2018-06-17T06:56:42.126Z,1448.00
2018-06-17T06:57:42.218Z,1460.00
2018-06-17T06:58:42.081Z,1488.00
2018-06-17T06:59:42.136Z,1544.00
2018-06-17T07:00:42.035Z,1496.00
2018-06-17T07:01:42.157Z,1404.00
2018-06-17T07:02:41.993Z,1352.00
2018-06-17T07:03:42.060Z,1352.00
2018-06-17T07:04:41.950Z,1344.00
2018-06-17T07:05:42.072Z,1360.00
2018-06-17T07:06:41.913Z,1396.00
2018-06-17T07:07:42.004Z,1392.00
2018-06-17T07:08:41.865Z,1368.00
2018-06-17T07:09:41.998Z,1368.00
2018-06-17T07:10:41.823Z,1424.00
2018-06-17T07:11:41.910Z,1456.00
2018-06-17T07:12:41.786Z,1472.00
2018-06-17T07:13:41.923Z,1504.00
2018-06-17T07:14:41.741Z,1552.00
2018-06-17T07:15:41.836Z,1604.00
2018-06-17T07:16:41.732Z,1624.00
2018-06-17T07:17:41.745Z,1648.00
2018-06-17T07:18:41.652Z,1676.00
2018-06-17T07:19:41.760Z,1684.00
2018-06-17T07:20:41.610Z,1708.00
2018-06-17T07:21:41.674Z,1724.00
2018-06-17T07:22:41.569Z,1776.00
2018-06-17T07:23:41.688Z,1860.00
2018-06-17T07:24:41.523Z,1892.00
2018-06-17T07:25:41.600Z,1912.00
2018-06-17T07:26:41.482Z,1932.00
2018-06-17T07:27:41.614Z,1988.00
2018-06-17T07:28:41.439Z,2096.00
2018-06-17T07:29:41.526Z,2180.00
2018-06-17T07:30:41.400Z,2248.00
2018-06-17T07:31:41.543Z,2280.00
2018-06-17T07:32:41.366Z,2280.00
2018-06-17T07:33:41.453Z,2336.00
2018-06-17T07:34:41.319Z,2288.00
2018-06-17T07:35:41.467Z,2208.00
2018-06-17T07:36:41.273Z,2184.00
2018-06-17T07:37:41.378Z,2252.00
2018-06-17T07:38:41.232Z,2356.00
2018-06-17T07:39:41.389Z,2472.00
2018-06-17T07:40:41.180Z,2500.00
2018-06-17T07:41:41.303Z,2464.00
2018-06-17T07:42:41.145Z,2420.00
2018-06-17T07:43:41.367Z,2348.00
2018-06-17T07:44:41.107Z,2276.00
2018-06-17T07:45:41.229Z,2348.00
2018-06-17T07:46:41.067Z,2384.00
2018-06-17T07:47:41.145Z,2364.00
2018-06-17T07:48:41.019Z,2300.00
2018-06-17T07:49:41.157Z,2248.00
2018-06-17T07:50:40.981Z,2268.00
2018-06-17T07:51:41.069Z,2304.00
2018-06-17T07:52:40.936Z,2304.00
2018-06-17T07:53:41.080Z,2296.00
2018-06-17T07:54:40.894Z,2284.00
2018-06-17T07:55:40.992Z,2264.00
2018-06-17T07:56:40.853Z,2224.00
2018-06-17T07:57:41.018Z,2180.00
2018-06-17T07:58:40.811Z,2228.00
2018-06-17T07:59:40.917Z,2252.00
2018-06-17T08:00:40.773Z,2292.00
2018-06-17T08:01:40.934Z,2368.00
2018-06-17T08:02:40.729Z,2528.00
2018-06-17T08:03:40.844Z,2612.00
2018-06-17T08:04:40.709Z,2636.00
2018-06-17T08:05:40.762Z,2640.00
2018-06-17T08:06:40.646Z,2668.00
2018-06-17T08:07:40.776Z,2668.00
2018-06-17T08:08:40.605Z,2648.00
2018-06-17T08:09:40.586Z,2608.00
2018-06-17T08:10:40.584Z,2564.00
2018-06-17T08:11:40.597Z,2564.00
2018-06-17T08:12:40.524Z,2544.00
2018-06-17T08:13:40.613Z,2552.00
2018-06-17T08:14:40.483Z,2536.00
2018-06-17T08:15:40.519Z,2512.00
2018-06-17T08:16:40.437Z,2504.00
2018-06-17T08:17:40.437Z,2552.00
2018-06-17T08:18:40.397Z,2544.00
2018-06-17T08:19:40.445Z,2548.00
2018-06-17T08:20:40.356Z,2556.00
2018-06-17T08:21:40.357Z,2552.00
2018-06-17T08:22:40.317Z,2556.00
2018-06-17T08:23:40.376Z,2520.00
2018-06-17T08:24:40.275Z,2468.00
2018-06-17T08:25:40.286Z,2404.00
2018-06-17T08:26:40.232Z,2344.00
2018-06-17T08:27:40.307Z,2320.00
2018-06-17T08:28:40.193Z,2344.00
2018-06-17T08:29:40.212Z,2360.00
2018-06-17T08:30:40.152Z,2344.00
2018-06-17T08:31:40.225Z,2332.00
2018-06-17T08:32:40.110Z,2312.00
2018-06-17T08:33:40.151Z,2316.00
2018-06-17T08:34:40.072Z,2392.00
2018-06-17T08:35:40.151Z,2392.00
2018-06-17T08:36:40.030Z,2392.00
2018-06-17T08:37:40.066Z,2384.00
2018-06-17T08:38:39.992Z,2388.00
2018-06-17T08:39:40.082Z,2388.00
2018-06-17T08:40:39.949Z,2392.00
2018-06-17T08:41:39.987Z,2416.00
2018-06-17T08:42:39.909Z,2452.00
2018-06-17T08:43:39.900Z,2468.00
2018-06-17T08:44:39.862Z,2508.00
2018-06-17T08:45:39.914Z,2552.00
2018-06-17T08:46:39.823Z,2608.00
2018-06-17T08:47:39.824Z,2648.00
2018-06-17T08:48:39.784Z,2692.00
2018-06-17T08:49:39.841Z,2716.00
2018-06-17T08:50:39.744Z,2744.00
2018-06-17T08:51:39.750Z,2772.00
2018-06-17T08:52:39.707Z,2796.00
2018-06-17T08:53:39.764Z,2812.00
2018-06-17T08:54:39.660Z,2796.00
2018-06-17T08:55:39.676Z,2780.00
2018-06-17T08:56:39.619Z,2772.00
2018-06-17T08:57:39.690Z,2756.00
2018-06-17T08:58:39.579Z,2688.00
2018-06-17T08:59:39.605Z,2744.00
2018-06-17T09:00:39.539Z,2892.00
2018-06-17T09:01:39.616Z,3024.00
2018-06-17T09:02:39.503Z,3068.00
2018-06-17T09:03:39.530Z,3092.00
2018-06-17T09:04:39.459Z,3040.00
2018-06-17T09:05:39.543Z,3004.00
2018-06-17T09:06:39.413Z,2956.00
2018-06-17T09:07:39.458Z,2756.00
2018-06-17T09:08:39.379Z,2716.00
2018-06-17T09:09:39.467Z,2868.00
2018-06-17T09:10:39.338Z,3032.00
2018-06-17T09:11:39.382Z,3060.00
2018-06-17T09:12:39.298Z,3020.00
2018-06-17T09:13:39.293Z,2952.00
2018-06-17T09:14:39.262Z,2744.00
2018-06-17T09:15:39.306Z,2464.00
2018-06-17T09:16:39.218Z,2304.00
2018-06-17T09:17:39.218Z,2264.00
2018-06-17T09:18:39.178Z,2192.00
2018-06-17T09:19:39.232Z,2320.00
2018-06-17T09:20:39.137Z,2504.00
2018-06-17T09:21:39.142Z,2452.00
2018-06-17T09:22:39.098Z,2352.00
2018-06-17T09:23:39.160Z,2388.00
2018-06-17T09:24:39.062Z,2520.00
2018-06-17T09:25:39.070Z,2472.00
2018-06-17T09:26:39.019Z,2292.00
2018-06-17T09:27:39.084Z,2164.00
2018-06-17T09:28:38.982Z,2144.00
2018-06-17T09:29:38.997Z,2136.00
2018-06-17T09:30:38.939Z,2128.00
2018-06-17T09:31:39.048Z,2072.00
2018-06-17T09:32:38.899Z,2056.00
2018-06-17T09:33:38.921Z,2108.00
2018-06-17T09:34:38.865Z,2092.00
2018-06-17T09:35:38.939Z,2120.00
2018-06-17T09:36:38.824Z,2164.00
2018-06-17T09:37:38.848Z,2124.00
2018-06-17T09:38:38.782Z,2164.00
2018-06-17T09:39:38.864Z,2288.00
2018-06-17T09:40:38.737Z,2380.00
2018-06-17T09:41:38.772Z,2400.00
2018-06-17T09:42:38.699Z,2400.00
2018-06-17T09:43:38.788Z,2452.00
2018-06-17T09:44:38.661Z,2588.00
2018-06-17T09:45:38.699Z,2664.00
2018-06-17T09:46:38.622Z,2696.00
2018-06-17T09:47:38.713Z,2756.00
2018-06-17T09:48:38.582Z,2892.00
2018-06-17T09:49:38.624Z,3004.00
2018-06-17T09:50:38.544Z,3072.00
2018-06-17T09:51:38.544Z,3140.00
2018-06-17T09:52:38.502Z,3224.00
2018-06-17T09:53:38.552Z,3252.00
2018-06-17T09:54:38.469Z,3244.00
2018-06-17T09:55:38.462Z,3312.00
2018-06-17T09:56:38.427Z,3436.00
2018-06-17T09:57:38.478Z,3460.00
2018-06-17T09:58:38.387Z,3456.00
2018-06-17T09:59:38.393Z,3292.00
2018-06-17T10:00:38.347Z,3164.00
2018-06-17T10:01:38.440Z,3064.00
2018-06-17T10:02:38.310Z,2928.00
2018-06-17T10:03:38.320Z,2652.00
2018-06-17T10:04:38.267Z,2280.00
2018-06-17T10:05:38.338Z,2024.00
2018-06-17T10:06:38.229Z,1848.00
2018-06-17T10:07:38.243Z,1716.00
2018-06-17T10:08:38.202Z,1732.00
2018-06-17T10:09:38.255Z,1828.00
2018-06-17T10:10:38.151Z,1776.00
2018-06-17T10:11:38.171Z,1664.00
2018-06-17T10:12:38.118Z,1604.00
2018-06-17T10:13:38.185Z,1532.00
2018-06-17T10:14:38.073Z,1524.00
2018-06-17T10:15:38.094Z,1584.00
2018-06-17T10:16:38.034Z,1652.00
2018-06-17T10:17:38.107Z,1728.00
2018-06-17T10:18:37.996Z,1792.00
2018-06-17T10:19:38.018Z,1872.00
2018-06-17T10:20:37.954Z,1944.00
2018-06-17T10:21:38.033Z,2016.00
2018-06-17T10:22:37.914Z,2044.00
2018-06-17T10:23:37.943Z,2064.00
2018-06-17T10:24:37.874Z,2152.00
2018-06-17T10:25:37.958Z,2296.00
2018-06-17T10:26:37.834Z,2340.00
2018-06-17T10:27:37.871Z,2392.00
2018-06-17T10:28:37.813Z,2432.00
2018-06-17T10:29:37.945Z,2436.00
2018-06-17T10:30:37.761Z,2532.00
2018-06-17T10:31:37.795Z,2636.00
2018-06-17T10:32:37.714Z,2780.00
2018-06-17T10:33:37.813Z,2960.00
2018-06-17T10:34:37.680Z,3228.00
2018-06-17T10:35:37.721Z,3512.00
2018-06-17T10:36:37.638Z,3672.00
2018-06-17T10:37:37.632Z,3664.00
2018-06-17T10:38:37.596Z,3508.00
2018-06-17T10:39:37.646Z,3360.00
2018-06-17T10:40:37.558Z,3188.00
2018-06-17T10:41:37.558Z,2920.00
2018-06-17T10:42:37.520Z,2696.00
2018-06-17T10:43:37.615Z,2488.00
2018-06-17T10:44:37.476Z,2248.00
2018-06-17T10:45:37.484Z,2092.00
2018-06-17T10:46:37.436Z,1896.00
2018-06-17T10:47:37.499Z,1704.00
2018-06-17T10:48:37.397Z,1520.00
2018-06-17T10:49:37.412Z,1388.00
2018-06-17T10:50:37.415Z,1296.00
2018-06-17T10:51:37.425Z,1212.00
2018-06-17T10:52:37.317Z,1164.00
2018-06-17T10:53:37.339Z,1104.00
2018-06-17T10:54:37.280Z,1056.00
2018-06-17T10:55:37.385Z,1032.00
2018-06-17T10:56:37.239Z,996.00
2018-06-17T10:57:37.261Z,980.00
2018-06-17T10:58:37.204Z,968.00
2018-06-17T10:59:37.277Z,976.00
2018-06-17T11:00:37.161Z,972.00
2018-06-17T11:01:37.188Z,936.00
2018-06-17T11:02:37.120Z,924.00
2018-06-17T11:03:37.202Z,936.00
2018-06-17T11:04:37.080Z,944.00
2018-06-17T11:05:37.191Z,964.00
2018-06-17T11:06:37.040Z,1000.00
2018-06-17T11:07:37.130Z,1056.00
2018-06-17T11:08:37.001Z,1116.00
2018-06-17T11:09:37.042Z,1144.00
2018-06-17T11:10:36.961Z,1188.00
2018-06-17T11:11:36.953Z,1244.00
2018-06-17T11:12:36.916Z,1268.00
2018-06-17T11:13:36.967Z,1224.00
2018-06-17T11:14:36.878Z,1196.00
2018-06-17T11:15:36.880Z,1164.00
2018-06-17T11:16:36.842Z,1152.00
2018-06-17T11:17:36.894Z,1160.00
2018-06-17T11:18:36.799Z,1196.00
2018-06-17T11:19:36.832Z,1160.00
2018-06-17T11:20:36.757Z,1100.00
2018-06-17T11:21:36.818Z,1072.00
2018-06-17T11:22:36.716Z,1108.00
2018-06-17T11:23:36.732Z,1152.00
2018-06-17T11:24:36.670Z,1188.00
2018-06-17T11:25:36.744Z,1208.00
2018-06-17T11:26:36.641Z,1228.00
2018-06-17T11:27:36.658Z,1244.00
2018-06-17T11:28:36.597Z,1236.00
2018-06-17T11:29:36.674Z,1216.00
2018-06-17T11:30:36.555Z,1180.00
2018-06-17T11:31:36.596Z,1128.00
2018-06-17T11:32:36.514Z,1116.00
2018-06-17T11:33:36.598Z,1132.00
2018-06-17T11:34:36.476Z,1152.00
2018-06-17T11:35:36.511Z,1196.00
2018-06-17T11:36:36.431Z,1216.00
2018-06-17T11:37:36.525Z,1212.00
2018-06-17T11:38:36.391Z,1204.00
2018-06-17T11:39:36.439Z,1204.00
2018-06-17T11:40:36.352Z,1224.00
2018-06-17T11:41:36.348Z,1280.00
2018-06-17T11:42:36.310Z,1332.00
2018-06-17T11:43:36.360Z,1384.00
2018-06-17T11:44:36.294Z,1428.00
2018-06-17T11:45:36.275Z,1460.00
2018-06-17T11:46:36.229Z,1488.00
2018-06-17T11:47:36.286Z,1508.00
2018-06-17T11:48:36.189Z,1516.00
2018-06-17T11:49:36.197Z,1520.00
2018-06-17T11:50:36.148Z,1504.00
2018-06-17T11:51:36.216Z,1496.00
2018-06-17T11:52:36.137Z,1488.00
2018-06-17T11:53:36.123Z,1476.00
2018-06-17T11:54:36.069Z,1480.00
2018-06-17T11:55:36.138Z,1508.00
2018-06-17T11:56:36.029Z,1536.00
2018-06-17T11:57:36.050Z,1584.00
2018-06-17T11:58:35.986Z,1632.00
2018-06-17T11:59:36.085Z,1656.00
2018-06-17T12:00:35.946Z,1652.00
2018-06-17T12:01:35.975Z,1628.00
2018-06-17T12:02:35.905Z,1588.00
2018-06-17T12:03:35.990Z,1568.00
2018-06-17T12:04:35.870Z,1568.00
2018-06-17T12:05:35.899Z,1584.00
2018-06-17T12:06:35.827Z,1620.00
2018-06-17T12:07:35.915Z,1668.00
2018-06-17T12:08:35.785Z,1712.00
2018-06-17T12:09:35.858Z,1752.00
2018-06-17T12:10:35.749Z,1776.00
2018-06-17T12:11:35.840Z,1804.00
2018-06-17T12:12:35.705Z,1840.00
2018-06-17T12:13:35.754Z,1896.00
2018-06-17T12:14:35.672Z,1960.00
2018-06-17T12:15:35.665Z,2016.00
2018-06-17T12:16:35.620Z,2056.00
2018-06-17T12:17:35.681Z,2092.00
2018-06-17T12:18:35.581Z,2100.00
2018-06-17T12:19:35.592Z,2080.00
2018-06-17T12:20:35.538Z,2024.00
2018-06-17T12:21:35.606Z,1972.00
2018-06-17T12:22:35.499Z,1904.00
2018-06-17T12:23:35.519Z,1836.00
2018-06-17T12:24:35.456Z,1752.00
2018-06-17T12:25:35.538Z,1636.00
2018-06-17T12:26:35.419Z,1516.00
2018-06-17T12:27:35.447Z,1448.00
2018-06-17T12:28:35.376Z,1460.00
2018-06-17T12:29:35.458Z,1532.00